createdAt,value
2018-12-20T00:00:52.928Z,97760.97
2018-12-20T00:02:59.845Z,97756.59
2018-12-20T00:05:06.613Z,97754.06
2018-12-20T00:07:13.238Z,97754.00
2018-12-20T00:09:19.897Z,97752.64
2018-12-20T00:11:26.606Z,97751.24
2018-12-20T00:13:33.211Z,97755.43
2018-12-20T00:15:40.033Z,97759.50
2018-12-20T00:17:49.926Z,97760.20
2018-12-20T00:19:56.819Z,97755.84
2018-12-20T00:22:03.462Z,97757.10
2018-12-20T00:24:10.081Z,97762.80
2018-12-20T00:26:17.192Z,97766.84
2018-12-20T00:28:23.891Z,97772.19
2018-12-20T00:30:30.571Z,97775.08
2018-12-20T00:32:37.401Z,97774.58
2018-12-20T00:34:44.248Z,97773.05
2018-12-20T00:36:51.098Z,97782.69
2018-12-20T00:38:57.746Z,97785.31
2018-12-20T00:41:05.032Z,97794.33
2018-12-20T00:43:11.879Z,97794.09
2018-12-20T00:45:18.500Z,97790.67
2018-12-20T00:47:25.203Z,97791.63
2018-12-20T00:49:31.637Z,97793.54
2018-12-20T00:51:38.352Z,97796.08
2018-12-20T00:53:44.951Z,97790.97
2018-12-20T00:55:51.750Z,97793.45
2018-12-20T00:57:58.358Z,97788.66
2018-12-20T01:00:05.363Z,97787.97
2018-12-20T01:02:12.110Z,97786.56
2018-12-20T01:04:18.722Z,97777.63
2018-12-20T01:06:25.568Z,97779.63
2018-12-20T01:08:32.325Z,97774.00
2018-12-20T01:10:39.065Z,97780.17
2018-12-20T01:12:45.939Z,97778.05
2018-12-20T01:14:52.302Z,97775.73
2018-12-20T01:16:59.270Z,97777.23
2018-12-20T01:19:05.923Z,97771.92
2018-12-20T01:21:12.791Z,97773.00
2018-12-20T01:23:19.543Z,97771.75
2018-12-20T01:25:26.357Z,97780.11
2018-12-20T01:27:32.922Z,97773.33
2018-12-20T01:29:39.828Z,97787.98
2018-12-20T01:31:46.644Z,97784.95
2018-12-20T01:33:53.351Z,97788.53
2018-12-20T01:36:00.546Z,97784.23
2018-12-20T01:38:07.221Z,97789.13
2018-12-20T01:40:13.947Z,97778.69
2018-12-20T01:42:20.774Z,97772.62
2018-12-20T01:44:27.473Z,97779.20
2018-12-20T01:46:34.398Z,97775.93
2018-12-20T01:48:40.801Z,97768.63
2018-12-20T01:50:47.660Z,97765.64
2018-12-20T01:52:54.099Z,97760.70
2018-12-20T01:55:00.979Z,97758.88
2018-12-20T01:57:07.617Z,97746.92
2018-12-20T01:59:14.478Z,97734.52
2018-12-20T02:01:21.378Z,97730.65
2018-12-20T02:03:28.080Z,97721.70
2018-12-20T02:05:34.967Z,97720.90
2018-12-20T02:07:41.488Z,97726.62
2018-12-20T02:09:48.311Z,97726.30
2018-12-20T02:11:54.895Z,97721.34
2018-12-20T02:14:01.598Z,97715.91
2018-12-20T02:16:08.248Z,97713.49
2018-12-20T02:18:15.106Z,97712.58
2018-12-20T02:20:21.729Z,97718.80
2018-12-20T02:22:29.023Z,97722.84
2018-12-20T02:24:35.780Z,97733.42
2018-12-20T02:26:42.842Z,97742.03
2018-12-20T02:28:49.784Z,97739.64
2018-12-20T02:30:56.548Z,97752.21
2018-12-20T02:33:03.326Z,97755.53
2018-12-20T02:35:10.351Z,97758.52
2018-12-20T02:37:17.617Z,97750.56
2018-12-20T02:39:24.083Z,97755.61
2018-12-20T02:41:30.825Z,97756.04
2018-12-20T02:43:37.617Z,97755.41
2018-12-20T02:45:44.363Z,97749.62
2018-12-20T02:47:51.275Z,97754.44
2018-12-20T02:49:58.298Z,97753.20
2018-12-20T02:52:05.233Z,97760.42
2018-12-20T02:54:12.543Z,97768.42
2018-12-20T02:56:19.460Z,97756.69
2018-12-20T02:58:26.226Z,97765.28
2018-12-20T03:00:32.987Z,97768.32
2018-12-20T03:02:39.889Z,97769.23
2018-12-20T03:04:46.790Z,97765.70
2018-12-20T03:06:54.048Z,97770.36
2018-12-20T03:09:00.899Z,97754.48
2018-12-20T03:11:07.658Z,97766.41
2018-12-20T03:13:14.429Z,97763.84
2018-12-20T03:15:21.262Z,97766.27
2018-12-20T03:17:27.693Z,97755.69
2018-12-20T03:19:34.240Z,97747.88
2018-12-20T03:21:40.809Z,97751.14
2018-12-20T03:23:47.302Z,97758.94
2018-12-20T03:25:54.255Z,97759.27
2018-12-20T03:28:00.922Z,97760.17
2018-12-20T03:30:07.571Z,97762.34
2018-12-20T03:32:14.167Z,97759.25
2018-12-20T03:34:20.800Z,97767.14
2018-12-20T03:36:27.577Z,97773.47
2018-12-20T03:38:34.639Z,97763.14
2018-12-20T03:40:41.713Z,97765.31
2018-12-20T03:42:48.202Z,97769.71
2018-12-20T03:44:54.797Z,97768.95
2018-12-20T03:47:01.614Z,97776.39
2018-12-20T03:49:08.058Z,97774.70
2018-12-20T03:51:14.492Z,97779.10
2018-12-20T03:53:21.163Z,97781.81
2018-12-20T03:55:27.874Z,97783.16
2018-12-20T03:57:34.122Z,97781.81
2018-12-20T03:59:40.292Z,97771.61
2018-12-20T04:01:46.440Z,97778.70
2018-12-20T04:03:52.678Z,97781.59
2018-12-20T04:05:59.008Z,97783.30
2018-12-20T04:08:05.814Z,97783.92
2018-12-20T04:10:12.841Z,97776.78
2018-12-20T04:12:19.721Z,97777.66
2018-12-20T04:14:26.323Z,97782.31
2018-12-20T04:16:33.144Z,97786.27
2018-12-20T04:18:40.071Z,97791.12
2018-12-20T04:20:47.390Z,97779.16
2018-12-20T04:30:06.199Z,97788.39
2018-12-20T04:32:13.287Z,97784.19
2018-12-20T04:34:19.963Z,97779.10
2018-12-20T04:36:26.863Z,97772.58
2018-12-20T04:38:33.738Z,97783.05
2018-12-20T04:40:40.456Z,97777.56
2018-12-20T04:42:50.062Z,97779.05
2018-12-20T04:45:18.128Z,97772.00
2018-12-20T04:47:31.075Z,97766.16
2018-12-20T04:49:43.347Z,97769.15
2018-12-20T04:51:56.980Z,97763.64
2018-12-20T04:54:09.781Z,97761.22
2018-12-20T04:56:16.572Z,97759.67
2018-12-20T04:58:23.614Z,97755.73
2018-12-20T05:00:36.637Z,97756.88
2018-12-20T05:02:50.773Z,97750.86
2018-12-20T05:05:23.523Z,97749.22
2018-12-20T05:07:31.255Z,97741.10
2018-12-20T05:09:42.324Z,97742.32
2018-12-20T05:11:52.408Z,97742.36
2018-12-20T05:14:05.512Z,97746.85
2018-12-20T05:16:12.863Z,97745.61
2018-12-20T05:18:28.126Z,97744.54
2018-12-20T05:20:39.178Z,97736.00
2018-12-20T05:22:50.083Z,97736.71
2018-12-20T05:25:03.092Z,97720.70
2018-12-20T05:27:13.429Z,97725.28
2018-12-20T05:29:24.429Z,97713.72
2018-12-20T05:31:33.990Z,97716.64
2018-12-20T05:33:45.222Z,97715.00
2018-12-20T05:35:52.276Z,97722.97
2018-12-20T05:38:00.795Z,97720.55
2018-12-20T05:40:11.037Z,97674.47
2018-12-20T05:42:21.230Z,97711.48
2018-12-20T05:44:28.293Z,97702.55
2018-12-20T05:46:35.142Z,97701.55
2018-12-20T05:48:49.491Z,97705.68
2018-12-20T05:51:02.238Z,97701.02
2018-12-20T05:53:09.981Z,97705.78
2018-12-20T05:55:22.834Z,97695.94
2018-12-20T05:57:36.629Z,97699.95
2018-12-20T05:59:48.818Z,97698.06
2018-12-20T06:02:04.847Z,97695.83
2018-12-20T06:04:40.528Z,97700.20
2018-12-20T06:06:52.861Z,97703.72
2018-12-20T06:09:06.376Z,97697.53
2018-12-20T06:11:13.296Z,97696.82
2018-12-20T06:13:20.033Z,97705.50
2018-12-20T06:15:26.627Z,97698.98
2018-12-20T06:17:33.330Z,97692.94
2018-12-20T06:19:40.024Z,97696.23
2018-12-20T06:21:46.648Z,97695.46
2018-12-20T06:23:56.979Z,97679.39
2018-12-20T06:26:10.753Z,97696.33
2018-12-20T06:28:25.130Z,97691.45
2018-12-20T06:30:36.750Z,97679.92
2018-12-20T06:32:48.009Z,97667.53
2018-12-20T06:34:58.359Z,97667.14
2018-12-20T06:37:10.202Z,97670.66
2018-12-20T06:39:21.613Z,97673.41
2018-12-20T06:41:30.097Z,97670.24
2018-12-20T06:43:40.348Z,97662.42
2018-12-20T06:45:47.178Z,97671.42
2018-12-20T06:47:53.902Z,97659.75
2018-12-20T06:50:00.735Z,97658.54
2018-12-20T06:52:07.593Z,97660.50
2018-12-20T06:54:18.367Z,97663.34
2018-12-20T06:56:24.962Z,97661.13
2018-12-20T06:58:35.438Z,97664.73
2018-12-20T07:00:46.929Z,97662.80
2018-12-20T07:02:53.666Z,97655.02
2018-12-20T07:05:00.270Z,97655.30
2018-12-20T07:07:06.983Z,97664.97
2018-12-20T07:09:13.754Z,97656.15
2018-12-20T07:11:20.445Z,97658.57
2018-12-20T07:13:27.058Z,97665.18
2018-12-20T07:15:33.838Z,97656.97
2018-12-20T07:17:40.318Z,97648.95
2018-12-20T07:19:47.119Z,97644.30
2018-12-20T07:21:53.803Z,97647.32
2018-12-20T07:24:00.245Z,97640.41
2018-12-20T07:26:06.947Z,97635.02
2018-12-20T07:28:17.613Z,97619.79
2018-12-20T07:30:28.852Z,97615.25
2018-12-20T07:32:35.518Z,97624.06
2018-12-20T07:34:47.846Z,97642.72
2018-12-20T07:36:50.783Z,97638.58
2018-12-20T07:38:57.386Z,97645.30
2018-12-20T07:41:03.806Z,97648.69
2018-12-20T07:43:10.578Z,97639.69
2018-12-20T07:45:17.487Z,97635.47
2018-12-20T07:47:24.959Z,97648.97
2018-12-20T07:49:31.717Z,97645.16
2018-12-20T07:51:38.650Z,97647.77
2018-12-20T07:53:45.162Z,97645.69
2018-12-20T07:55:51.795Z,97632.22
2018-12-20T07:57:58.392Z,97622.98
2018-12-20T08:00:05.282Z,97614.77
2018-12-20T08:02:11.913Z,97614.44
2018-12-20T08:04:18.362Z,97635.81
2018-12-20T08:06:24.972Z,97625.00
2018-12-20T08:08:31.502Z,97634.71
2018-12-20T08:10:38.157Z,97639.84
2018-12-20T08:12:45.053Z,97627.42
2018-12-20T08:17:29.511Z,97624.55
2018-12-20T08:19:36.658Z,97615.83
2018-12-20T08:21:43.204Z,97616.51
2018-12-20T08:23:50.048Z,97609.72
2018-12-20T08:25:56.737Z,97609.44
2018-12-20T08:28:03.637Z,97596.59
2018-12-20T08:30:10.721Z,97609.22
2018-12-20T08:32:17.371Z,97617.44
2018-12-20T08:34:24.074Z,97606.05
2018-12-20T08:36:30.613Z,97605.09
2018-12-20T08:38:37.272Z,97610.72
2018-12-20T08:40:43.998Z,97612.14
2018-12-20T08:42:50.551Z,97603.31
2018-12-20T08:44:57.194Z,97614.30
2018-12-20T08:47:03.810Z,97625.29
2018-12-20T08:49:10.338Z,97624.70
2018-12-20T08:51:17.346Z,97627.69
2018-12-20T08:53:24.384Z,97628.71
2018-12-20T08:55:30.964Z,97622.37
2018-12-20T08:57:37.411Z,97618.69
2018-12-20T08:59:43.946Z,97634.38
2018-12-20T09:01:50.778Z,97630.23
2018-12-20T09:03:57.454Z,97629.63
2018-12-20T09:06:04.093Z,97631.67
2018-12-20T09:08:10.969Z,97616.98
2018-12-20T09:10:17.662Z,97609.21
2018-12-20T09:12:24.309Z,97607.14
2018-12-20T09:14:30.955Z,97602.42
2018-12-20T09:16:37.624Z,97602.65
2018-12-20T09:18:44.195Z,97596.10
2018-12-20T09:20:50.795Z,97599.94
2018-12-20T09:22:57.284Z,97602.45
2018-12-20T09:25:03.806Z,97605.47
2018-12-20T09:27:10.466Z,97604.94
2018-12-20T09:29:16.940Z,97599.50
2018-12-20T09:31:23.414Z,97595.88
2018-12-20T09:33:30.221Z,97586.09
2018-12-20T09:35:36.830Z,97580.88
2018-12-20T09:37:43.418Z,97579.59
2018-12-20T09:39:50.249Z,97575.02
2018-12-20T09:41:57.053Z,97568.61
2018-12-20T09:44:03.726Z,97557.95
2018-12-20T09:46:10.470Z,97552.80
2018-12-20T09:48:17.352Z,97549.56
2018-12-20T09:50:23.930Z,97543.05
2018-12-20T09:52:31.012Z,97541.17
2018-12-20T09:54:37.693Z,97553.16
2018-12-20T09:56:44.291Z,97547.75
2018-12-20T09:58:50.998Z,97547.37
2018-12-20T10:00:57.560Z,97550.03
2018-12-20T10:03:04.320Z,97548.43
2018-12-20T10:05:11.012Z,97553.05
2018-12-20T10:07:17.599Z,97553.77
2018-12-20T10:09:24.091Z,97557.03
2018-12-20T10:11:30.791Z,97556.59
2018-12-20T10:13:37.466Z,97558.44
2018-12-20T10:15:43.999Z,97551.61
2018-12-20T10:17:50.884Z,97549.13
2018-12-20T10:19:58.115Z,97551.44
2018-12-20T10:22:04.779Z,97548.60
2018-12-20T10:24:11.301Z,97545.55
2018-12-20T10:26:18.001Z,97536.17
2018-12-20T10:28:24.562Z,97537.00
2018-12-20T10:30:31.274Z,97534.20
2018-12-20T10:32:37.694Z,97539.84
2018-12-20T10:34:44.463Z,97540.59
2018-12-20T10:36:51.117Z,97535.62
2018-12-20T10:38:58.066Z,97536.03
2018-12-20T10:41:04.827Z,97533.58
2018-12-20T10:43:11.817Z,97534.27
2018-12-20T10:45:18.583Z,97524.53
2018-12-20T10:47:29.138Z,97519.59
2018-12-20T10:49:35.396Z,97518.18
2018-12-20T10:51:42.046Z,97524.05
2018-12-20T10:53:48.853Z,97512.96
2018-12-20T10:55:55.619Z,97499.03
2018-12-20T10:58:02.399Z,97502.05
2018-12-20T11:00:10.106Z,97500.42
2018-12-20T11:02:21.201Z,97510.81
2018-12-20T11:04:32.390Z,97504.06
2018-12-20T11:06:43.564Z,97516.16
2018-12-20T11:08:54.949Z,97517.47
2018-12-20T11:11:07.791Z,97525.61
2018-12-20T11:13:18.877Z,97529.38
2018-12-20T11:15:26.066Z,97525.61
2018-12-20T11:17:37.381Z,97528.06
2018-12-20T11:19:41.287Z,97521.88
2018-12-20T11:21:47.995Z,97524.53
2018-12-20T11:23:54.598Z,97535.75
2018-12-20T11:26:01.165Z,97537.26
2018-12-20T11:28:07.874Z,97546.19
2018-12-20T11:30:14.874Z,97538.89
2018-12-20T11:32:21.559Z,97549.55
2018-12-20T11:34:27.953Z,97558.32
2018-12-20T11:36:34.728Z,97559.64
2018-12-20T11:38:41.374Z,97555.45
2018-12-20T11:40:47.849Z,97553.45
2018-12-20T11:42:54.385Z,97552.63
2018-12-20T11:45:01.090Z,97556.55
2018-12-20T11:47:12.067Z,97552.78
2018-12-20T11:49:18.798Z,97547.34
2018-12-20T11:51:25.255Z,97544.33
2018-12-20T11:53:31.753Z,97553.93
2018-12-20T11:55:38.426Z,97552.83
2018-12-20T11:57:45.337Z,97555.93
2018-12-20T11:59:52.167Z,97555.61
2018-12-20T12:01:58.768Z,97560.98
2018-12-20T12:04:05.306Z,97556.82
2018-12-20T12:06:12.096Z,97557.17
2018-12-20T12:08:18.809Z,97560.55
2018-12-20T12:10:25.398Z,97553.34
2018-12-20T12:12:31.883Z,97562.47
2018-12-20T12:14:38.538Z,97556.54
2018-12-20T12:16:45.020Z,97544.91
2018-12-20T12:18:52.019Z,97552.16
2018-12-20T12:20:58.630Z,97559.09
2018-12-20T12:23:05.065Z,97568.02
2018-12-20T12:25:12.800Z,97564.66
2018-12-20T12:27:19.458Z,97567.88
2018-12-20T12:29:26.165Z,97558.58
2018-12-20T12:31:32.819Z,97567.97
2018-12-20T12:33:39.616Z,97564.70
2018-12-20T12:35:46.710Z,97558.59
2018-12-20T12:37:53.357Z,97562.52
2018-12-20T12:40:00.054Z,97546.44
2018-12-20T12:42:06.570Z,97554.94
2018-12-20T12:44:13.075Z,97553.75
2018-12-20T12:46:19.865Z,97552.70
2018-12-20T12:48:26.329Z,97555.06
2018-12-20T12:50:32.427Z,97548.05
2018-12-20T12:52:38.980Z,97552.22
2018-12-20T12:54:45.562Z,97553.87
2018-12-20T12:56:52.237Z,97542.58
2018-12-20T12:58:59.274Z,97544.05
2018-12-20T13:01:06.117Z,97546.59
2018-12-20T13:03:12.604Z,97536.32
2018-12-20T13:05:19.267Z,97539.91
2018-12-20T13:07:26.031Z,97543.55
2018-12-20T13:09:32.651Z,97550.23
2018-12-20T13:11:39.346Z,97529.94
2018-12-20T13:13:46.040Z,97515.92
2018-12-20T13:15:52.566Z,97510.30
2018-12-20T13:17:59.255Z,97495.21
2018-12-20T13:20:06.366Z,97483.30
2018-12-20T13:22:12.809Z,97481.13
2018-12-20T13:24:19.477Z,97475.80
2018-12-20T13:26:26.048Z,97468.89
2018-12-20T13:28:32.859Z,97468.84
2018-12-20T13:30:39.472Z,97473.74
2018-12-20T13:32:46.121Z,97492.36
2018-12-20T13:34:52.601Z,97502.83
2018-12-20T13:36:59.498Z,97512.50
2018-12-20T13:39:07.674Z,97512.95
2018-12-20T13:41:14.229Z,97523.45
2018-12-20T13:43:20.919Z,97520.68
2018-12-20T13:45:27.764Z,97527.66
2018-12-20T13:47:34.375Z,97541.09
2018-12-20T13:49:40.951Z,97544.51
2018-12-20T13:51:47.637Z,97543.53
2018-12-20T13:53:54.379Z,97545.10
2018-12-20T13:56:01.085Z,97552.67
2018-12-20T13:58:07.672Z,97562.07
2018-12-20T14:00:17.068Z,97571.20
2018-12-20T14:02:23.874Z,97581.62
2018-12-20T14:04:30.148Z,97585.34
2018-12-20T14:06:36.530Z,97583.84
2018-12-20T14:08:43.487Z,97584.37
2018-12-20T14:10:50.252Z,97588.10
2018-12-20T14:12:56.842Z,97595.08
2018-12-20T14:15:03.497Z,97600.58
2018-12-20T14:17:10.627Z,97608.34
2018-12-20T14:19:17.846Z,97602.84
2018-12-20T14:21:26.665Z,97599.77
2018-12-20T14:23:33.745Z,97594.03
2018-12-20T14:25:40.344Z,97599.40
2018-12-20T14:27:46.863Z,97598.05
2018-12-20T14:29:53.599Z,97613.16
2018-12-20T14:32:00.503Z,97609.29
2018-12-20T14:34:06.638Z,97608.19
2018-12-20T14:36:13.322Z,97594.41
2018-12-20T14:38:19.805Z,97595.67
2018-12-20T14:40:26.982Z,97602.98
2018-12-20T14:42:33.775Z,97591.69
2018-12-20T14:44:40.590Z,97590.79
2018-12-20T14:46:47.244Z,97597.24
2018-12-20T14:48:54.792Z,97594.02
2018-12-20T14:51:01.587Z,97602.97
2018-12-20T14:53:17.917Z,97604.88
2018-12-20T14:55:26.601Z,97596.38
2018-12-20T14:57:33.297Z,97590.91
2018-12-20T14:59:47.993Z,97588.58
2018-12-20T15:02:01.528Z,97588.83
2018-12-20T15:04:15.957Z,97600.31
2018-12-20T15:06:30.275Z,97598.23
2018-12-20T15:08:43.576Z,97604.11
2018-12-20T15:10:56.014Z,97599.97
2018-12-20T15:13:09.965Z,97599.86
2018-12-20T15:15:22.069Z,97599.87
2018-12-20T15:17:37.159Z,97596.06
2018-12-20T15:19:45.397Z,97596.25
2018-12-20T15:22:00.212Z,97597.77
2018-12-20T15:24:07.642Z,97596.60
2018-12-20T15:26:14.187Z,97602.44
2018-12-20T15:28:23.944Z,97604.91
2018-12-20T15:30:40.074Z,97605.27
2018-12-20T15:32:54.443Z,97617.02
2018-12-20T15:35:06.873Z,97615.06
2018-12-20T15:37:18.153Z,97613.19
2018-12-20T15:39:36.951Z,97615.62
2018-12-20T15:41:46.253Z,97617.02
2018-12-20T15:43:57.108Z,97620.50
2018-12-20T15:46:04.349Z,97613.74
2018-12-20T15:48:11.189Z,97612.03
2018-12-20T15:50:22.543Z,97613.19
2018-12-20T15:52:34.893Z,97610.95
2018-12-20T15:54:48.593Z,97610.52
2018-12-20T15:57:00.725Z,97608.67
2018-12-20T15:59:10.888Z,97609.88
2018-12-20T16:01:22.179Z,97609.09
2018-12-20T16:03:32.734Z,97613.32
2018-12-20T16:05:39.962Z,97609.73
2018-12-20T16:07:51.166Z,97608.00
2018-12-20T16:10:05.581Z,97605.09
2018-12-20T16:12:19.538Z,97603.30
2018-12-20T16:14:31.420Z,97591.53
2018-12-20T16:16:43.717Z,97595.92
2018-12-20T16:19:04.713Z,97600.80
2018-12-20T16:21:07.060Z,97605.08
2018-12-20T16:23:18.497Z,97602.28
2018-12-20T16:25:27.040Z,97608.53
2018-12-20T16:27:38.226Z,97598.67
2018-12-20T16:29:51.405Z,97601.88
2018-12-20T16:32:07.495Z,97594.78
2018-12-20T16:34:22.802Z,97593.09
2018-12-20T16:36:36.328Z,97587.66
2018-12-20T16:38:48.864Z,97594.33
2018-12-20T16:40:58.542Z,97594.08
2018-12-20T16:43:10.543Z,97588.75
2018-12-20T16:45:24.594Z,97596.22
2018-12-20T16:47:36.411Z,97580.16
2018-12-20T16:49:51.476Z,97583.96
2018-12-20T16:52:05.771Z,97581.79
2018-12-20T16:54:23.323Z,97572.86
2018-12-20T16:56:32.170Z,97578.27
2018-12-20T16:58:43.967Z,97578.06
2018-12-20T17:00:54.017Z,97571.14
2018-12-20T17:03:02.094Z,97563.33
2018-12-20T17:05:13.640Z,97565.16
2018-12-20T17:07:24.923Z,97555.93
2018-12-20T17:09:36.742Z,97558.62
2018-12-20T17:11:45.257Z,97559.67
2018-12-20T17:13:57.746Z,97564.89
2018-12-20T17:18:29.999Z,97547.55
2018-12-20T17:20:41.929Z,97545.11
2018-12-20T17:22:54.620Z,97538.59
2018-12-20T17:25:05.322Z,97535.82
2018-12-20T17:27:18.809Z,97538.71
2018-12-20T17:29:30.874Z,97534.44
2018-12-20T17:31:40.310Z,97525.15
2018-12-20T17:33:55.069Z,97522.88
2018-12-20T17:36:01.971Z,97529.03
2018-12-20T17:38:10.927Z,97524.72
2018-12-20T17:40:22.817Z,97524.81
2018-12-20T17:42:30.687Z,97525.09
2018-12-20T17:44:37.493Z,97518.30
2018-12-20T17:46:44.306Z,97511.72
2018-12-20T17:48:55.268Z,97506.17
2018-12-20T17:51:02.406Z,97502.11
2018-12-20T17:53:09.291Z,97497.52
2018-12-20T17:55:19.984Z,97491.48
2018-12-20T17:57:26.829Z,97489.86
2018-12-20T17:59:33.414Z,97487.83
2018-12-20T18:01:40.431Z,97489.90
2018-12-20T18:03:47.101Z,97480.25
2018-12-20T18:05:54.082Z,97482.83
2018-12-20T18:08:03.876Z,97476.68
2018-12-20T18:10:16.724Z,97477.33
2018-12-20T18:12:28.880Z,97476.95
2018-12-20T18:14:39.437Z,97470.66
2018-12-20T18:16:46.086Z,97473.64
2018-12-20T18:18:52.889Z,97474.38
2018-12-20T18:21:02.884Z,97472.73
2018-12-20T18:25:26.794Z,97467.96
2018-12-20T18:27:34.547Z,97464.64
2018-12-20T18:29:45.416Z,97460.02
2018-12-20T18:31:55.277Z,97451.56
2018-12-20T18:34:07.343Z,97452.83
2018-12-20T18:36:14.453Z,97455.97
2018-12-20T18:38:24.140Z,97452.22
2018-12-20T18:40:36.166Z,97452.17
2018-12-20T18:42:48.222Z,97446.47
2018-12-20T18:45:02.823Z,97443.78
2018-12-20T18:47:14.387Z,97442.66
2018-12-20T18:49:21.492Z,97445.64
2018-12-20T18:51:29.828Z,97441.22
2018-12-20T18:53:45.225Z,97437.45
2018-12-20T18:55:52.128Z,97440.94
2018-12-20T18:57:58.676Z,97446.28
2018-12-20T19:00:05.522Z,97445.47
2018-12-20T19:02:12.173Z,97442.98
2018-12-20T19:04:18.777Z,97444.58
2018-12-20T19:06:25.503Z,97443.67
2018-12-20T19:08:32.142Z,97445.73
2018-12-20T19:10:38.844Z,97446.45
2018-12-20T19:15:29.066Z,97439.20
2018-12-20T19:17:35.862Z,97437.05
2018-12-20T19:19:43.061Z,97440.02
2018-12-20T19:21:59.520Z,97432.44
2018-12-20T19:26:36.783Z,97428.62
2018-12-20T19:28:43.808Z,97424.02
2018-12-20T19:30:50.765Z,97425.97
2018-12-20T19:32:58.034Z,97417.20
2018-12-20T19:35:05.069Z,97414.68
2018-12-20T19:37:18.910Z,97402.41
2018-12-20T19:39:26.750Z,97404.86
2018-12-20T19:41:33.703Z,97400.44
2018-12-20T19:43:47.034Z,97390.70
2018-12-20T19:45:54.754Z,97389.88
2018-12-20T19:48:01.530Z,97395.83
2018-12-20T19:50:13.726Z,97397.67
2018-12-20T19:52:25.920Z,97390.89
2018-12-20T19:54:48.092Z,97389.95
2018-12-20T19:56:55.303Z,97386.33
2018-12-20T19:59:02.118Z,97393.13
2018-12-20T20:01:08.846Z,97393.93
2018-12-20T20:03:15.820Z,97395.91
2018-12-20T20:05:27.330Z,97401.72
2018-12-20T20:07:34.418Z,97400.44
2018-12-20T20:09:40.962Z,97405.38
2018-12-20T20:11:47.609Z,97412.44
2018-12-20T20:13:54.229Z,97427.88
2018-12-20T20:16:00.881Z,97421.09
2018-12-20T20:18:07.740Z,97421.84
2018-12-20T20:20:14.626Z,97421.77
2018-12-20T20:22:22.121Z,97425.34
2018-12-20T20:24:28.397Z,97423.27
2018-12-20T20:26:35.066Z,97410.92
2018-12-20T20:28:41.849Z,97412.34
2018-12-20T20:30:48.394Z,97411.52
2018-12-20T20:33:02.157Z,97417.58
2018-12-20T20:35:09.864Z,97422.59
2018-12-20T20:37:16.550Z,97421.88
2018-12-20T20:39:23.658Z,97439.36
2018-12-20T20:41:30.038Z,97431.28
2018-12-20T20:43:36.783Z,97430.25
2018-12-20T20:45:43.447Z,97428.03
2018-12-20T20:47:50.130Z,97427.18
2018-12-20T20:49:57.370Z,97431.28
2018-12-20T20:52:04.187Z,97436.45
2018-12-20T20:54:10.735Z,97434.82
2018-12-20T20:56:17.957Z,97435.29
2018-12-20T20:58:24.849Z,97436.11
2018-12-20T21:00:31.814Z,97439.08
2018-12-20T21:02:38.182Z,97452.11
2018-12-20T21:04:45.180Z,97460.23
2018-12-20T21:06:51.611Z,97456.91
2018-12-20T21:08:58.352Z,97457.72
2018-12-20T21:11:05.226Z,97464.22
2018-12-20T21:13:11.829Z,97457.08
2018-12-20T21:15:18.433Z,97459.20
2018-12-20T21:17:25.182Z,97450.70
2018-12-20T21:19:32.016Z,97445.30
2018-12-20T21:21:38.613Z,97450.73
2018-12-20T21:23:45.493Z,97451.61
2018-12-20T21:25:51.976Z,97450.86
2018-12-20T21:28:05.272Z,97451.15
2018-12-20T21:30:19.208Z,97452.20
2018-12-20T21:32:26.954Z,97456.68
2018-12-20T21:34:33.664Z,97463.23
2018-12-20T21:36:40.626Z,97463.80
2018-12-20T21:38:47.484Z,97466.06
2018-12-20T21:40:54.328Z,97470.18
2018-12-20T21:43:00.690Z,97471.80
2018-12-20T21:45:08.365Z,97471.73
2018-12-20T21:47:15.245Z,97475.26
2018-12-20T21:49:21.745Z,97476.06
2018-12-20T21:51:28.417Z,97472.53
2018-12-20T21:53:35.020Z,97478.70
2018-12-20T21:55:41.693Z,97484.86
2018-12-20T21:57:49.036Z,97488.40
2018-12-20T22:00:01.137Z,97492.87
2018-12-20T22:02:04.617Z,97490.27
2018-12-20T22:04:11.486Z,97492.60
2018-12-20T22:06:19.892Z,97485.91
2018-12-20T22:08:27.122Z,97490.69
2018-12-20T22:10:34.067Z,97484.55
2018-12-20T22:12:40.453Z,97478.16
2018-12-20T22:14:47.331Z,97475.56
2018-12-20T22:16:54.201Z,97465.29
2018-12-20T22:19:00.824Z,97464.20
2018-12-20T22:21:08.004Z,97464.14
2018-12-20T22:23:14.717Z,97473.27
2018-12-20T22:25:20.954Z,97465.35
2018-12-20T22:27:27.608Z,97468.83
2018-12-20T22:29:34.091Z,97477.39
2018-12-20T22:31:40.854Z,97477.65
2018-12-20T22:33:47.467Z,97475.69
2018-12-20T22:35:54.180Z,97481.57
2018-12-20T22:38:00.778Z,97490.78
2018-12-20T22:40:08.474Z,97490.45
2018-12-20T22:42:15.530Z,97497.20
2018-12-20T22:44:22.113Z,97499.91
2018-12-20T22:46:29.066Z,97511.52
2018-12-20T22:48:35.888Z,97500.92
2018-12-20T22:50:42.620Z,97509.58
2018-12-20T22:52:49.515Z,97500.11
2018-12-20T22:54:56.270Z,97498.12
2018-12-20T22:57:03.251Z,97497.31
2018-12-20T22:59:09.935Z,97503.18
2018-12-20T23:01:16.863Z,97508.41
2018-12-20T23:03:23.438Z,97503.78
2018-12-20T23:05:30.088Z,97506.95
2018-12-20T23:07:36.699Z,97502.08
2018-12-20T23:09:43.880Z,97502.88
2018-12-20T23:11:50.822Z,97503.16
2018-12-20T23:13:58.012Z,97507.05
2018-12-20T23:16:04.698Z,97506.59
2018-12-20T23:18:11.235Z,97507.34
2018-12-20T23:20:17.876Z,97517.00
2018-12-20T23:22:24.642Z,97517.39
2018-12-20T23:24:31.365Z,97513.70
2018-12-20T23:26:38.299Z,97515.70
2018-12-20T23:28:44.842Z,97519.89
2018-12-20T23:30:51.575Z,97514.74
2018-12-20T23:32:58.455Z,97512.27
2018-12-20T23:35:05.132Z,97519.05
2018-12-20T23:37:11.878Z,97515.55
2018-12-20T23:39:18.570Z,97516.86
2018-12-20T23:41:25.202Z,97510.85
2018-12-20T23:43:31.967Z,97511.09
2018-12-20T23:45:38.684Z,97517.41
2018-12-20T23:47:45.570Z,97515.88
2018-12-20T23:49:52.165Z,97518.00
2018-12-20T23:51:58.782Z,97516.37
2018-12-20T23:54:05.285Z,97522.16
2018-12-20T23:56:12.255Z,97509.36
2018-12-20T23:58:18.863Z,97509.90
